createdAt,value
2023-03-19T00:01:37.716Z,101096.72
2023-03-19T00:04:04.776Z,101099.28
2023-03-19T00:06:32.942Z,101105.47
2023-03-19T00:08:59.762Z,101099.47
2023-03-19T00:11:26.511Z,101101.19
2023-03-19T00:13:53.378Z,101103.00
2023-03-19T00:16:20.321Z,101102.22
2023-03-19T00:18:47.209Z,101106.53
2023-03-19T00:21:14.127Z,101115.44
2023-03-19T00:23:42.336Z,101108.31
2023-03-19T00:26:09.241Z,101110.00
2023-03-19T00:28:37.943Z,101109.91
2023-03-19T00:31:09.704Z,101115.31
2023-03-19T00:33:36.509Z,101114.28
2023-03-19T00:36:04.410Z,101116.97
2023-03-19T00:38:31.358Z,101116.97
2023-03-19T00:40:59.542Z,101117.81
2023-03-19T00:43:26.376Z,101121.28
2023-03-19T00:45:53.355Z,101122.16
2023-03-19T00:48:20.102Z,101124.81
2023-03-19T00:50:46.815Z,101111.22
2023-03-19T00:53:13.655Z,101123.22
2023-03-19T00:55:40.823Z,101118.84
2023-03-19T00:58:09.252Z,101118.75
2023-03-19T01:00:37.015Z,101120.47
2023-03-19T01:03:05.153Z,101121.28
2023-03-19T01:05:32.622Z,101120.34
2023-03-19T01:07:59.420Z,101121.28
2023-03-19T01:10:26.444Z,101123.31
2023-03-19T01:12:53.187Z,101125.88
2023-03-19T01:17:47.944Z,101127.88
2023-03-19T01:20:14.782Z,101127.88
2023-03-19T01:22:42.346Z,101132.25
2023-03-19T01:25:11.605Z,101129.69
2023-03-19T01:27:40.595Z,101125.38
2023-03-19T01:30:09.297Z,101122.69
2023-03-19T01:33:16.026Z,101134.16
2023-03-19T01:36:04.552Z,101125.22
2023-03-19T01:38:48.643Z,101121.88
2023-03-19T01:41:16.148Z,101120.47
2023-03-19T01:43:43.895Z,101119.81
2023-03-19T01:46:40.292Z,101124.06
2023-03-19T01:49:29.083Z,101125.59
2023-03-19T01:52:24.234Z,101125.78
2023-03-19T01:55:20.211Z,101135.13
2023-03-19T01:58:06.661Z,101132.50
2023-03-19T02:00:54.665Z,101126.94
2023-03-19T02:03:21.714Z,101133.31
2023-03-19T02:06:13.644Z,101127.13
2023-03-19T02:08:41.840Z,101131.41
2023-03-19T02:11:08.774Z,101128.06
2023-03-19T02:13:35.852Z,101127.50
2023-03-19T02:16:03.116Z,101131.97
2023-03-19T02:18:30.745Z,101129.41
2023-03-19T02:21:03.675Z,101134.25
2023-03-19T02:23:37.530Z,101135.31
2023-03-19T02:26:16.012Z,101135.34
2023-03-19T02:28:45.753Z,101133.75
2023-03-19T02:31:17.119Z,101134.44
2023-03-19T02:33:44.539Z,101130.06
2023-03-19T02:36:16.834Z,101134.41
2023-03-19T02:38:46.040Z,101127.81
2023-03-19T02:41:14.515Z,101130.25
2023-03-19T02:43:42.159Z,101130.31
2023-03-19T02:46:12.502Z,101131.91
2023-03-19T02:48:41.049Z,101141.00
2023-03-19T02:51:07.782Z,101140.03
2023-03-19T02:53:34.521Z,101141.88
2023-03-19T02:56:01.294Z,101144.50
2023-03-19T02:58:29.858Z,101145.53
2023-03-19T03:00:56.959Z,101148.88
2023-03-19T03:03:23.818Z,101151.00
2023-03-19T03:05:50.682Z,101147.09
2023-03-19T03:08:17.557Z,101150.28
2023-03-19T03:10:44.657Z,101143.84
2023-03-19T03:13:12.230Z,101147.59
2023-03-19T03:15:40.537Z,101142.47
2023-03-19T03:18:10.537Z,101144.38
2023-03-19T03:20:37.509Z,101140.78
2023-03-19T03:23:04.830Z,101151.09
2023-03-19T03:25:31.759Z,101158.72
2023-03-19T03:27:58.524Z,101158.97
2023-03-19T03:30:25.324Z,101149.50
2023-03-19T03:32:53.501Z,101157.78
2023-03-19T03:35:21.177Z,101152.59
2023-03-19T03:37:48.305Z,101154.53
2023-03-19T03:40:15.546Z,101155.53
2023-03-19T03:42:43.141Z,101149.66
2023-03-19T03:45:11.371Z,101157.03
2023-03-19T03:47:39.640Z,101155.31
2023-03-19T03:50:09.637Z,101157.78
2023-03-19T03:52:36.618Z,101159.16
2023-03-19T03:55:03.682Z,101155.13
2023-03-19T03:57:30.586Z,101157.69
2023-03-19T03:59:57.506Z,101157.59
2023-03-19T04:02:24.338Z,101147.88
2023-03-19T04:04:51.298Z,101155.03
2023-03-19T04:07:19.563Z,101157.78
2023-03-19T04:09:54.252Z,101154.59
2023-03-19T04:12:21.330Z,101156.47
2023-03-19T04:14:48.206Z,101160.25
2023-03-19T04:17:15.149Z,101158.69
2023-03-19T04:19:42.015Z,101160.41
2023-03-19T04:22:08.897Z,101160.63
2023-03-19T04:24:37.277Z,101164.66
2023-03-19T04:27:04.290Z,101164.88
2023-03-19T04:29:31.301Z,101174.78
2023-03-19T04:31:59.079Z,101181.31
2023-03-19T04:34:25.786Z,101181.66
2023-03-19T04:36:52.587Z,101184.06
2023-03-19T04:39:19.354Z,101180.19
2023-03-19T04:41:48.406Z,101185.78
2023-03-19T04:44:27.761Z,101189.16
2023-03-19T04:46:55.155Z,101192.97
2023-03-19T04:49:22.716Z,101190.94
2023-03-19T04:51:51.011Z,101194.66
2023-03-19T04:54:17.725Z,101185.78
2023-03-19T04:56:44.683Z,101185.78
2023-03-19T04:59:13.063Z,101201.50
2023-03-19T05:01:40.011Z,101201.19
2023-03-19T05:04:09.316Z,101200.50
2023-03-19T05:06:39.538Z,101207.78
2023-03-19T05:09:07.032Z,101216.03
2023-03-19T05:11:34.034Z,101204.09
2023-03-19T05:14:06.434Z,101210.78
2023-03-19T05:16:57.781Z,101221.91
2023-03-19T05:19:26.897Z,101213.03
2023-03-19T05:21:54.770Z,101203.13
2023-03-19T05:24:24.606Z,101211.16
2023-03-19T05:26:52.217Z,101213.97
2023-03-19T05:29:43.596Z,101216.78
2023-03-19T05:32:19.848Z,101228.06
2023-03-19T05:34:46.954Z,101234.22
2023-03-19T05:37:14.213Z,101237.03
2023-03-19T05:39:42.131Z,101236.41
2023-03-19T05:42:12.262Z,101229.03
2023-03-19T05:44:39.120Z,101235.44
2023-03-19T05:47:19.189Z,101240.72
2023-03-19T05:49:51.459Z,101249.50
2023-03-19T05:52:18.905Z,101256.78
2023-03-19T05:54:46.626Z,101258.56
2023-03-19T05:57:33.768Z,101264.19
2023-03-19T06:00:08.297Z,101264.63
2023-03-19T06:02:37.891Z,101274.38
2023-03-19T06:05:37.152Z,101271.81
2023-03-19T06:08:16.504Z,101275.47
2023-03-19T06:11:15.566Z,101280.38
2023-03-19T06:13:45.572Z,101283.22
2023-03-19T06:16:16.134Z,101282.47
2023-03-19T06:18:54.839Z,101291.72
2023-03-19T06:21:23.294Z,101289.84
2023-03-19T06:23:50.616Z,101295.63
2023-03-19T06:26:21.498Z,101296.38
2023-03-19T06:28:54.512Z,101300.44
2023-03-19T06:31:21.718Z,101297.78
2023-03-19T06:34:12.807Z,101302.31
2023-03-19T06:36:42.124Z,101305.69
2023-03-19T06:39:11.675Z,101317.03
2023-03-19T06:41:38.446Z,101318.66
2023-03-19T06:44:16.318Z,101317.50
2023-03-19T06:46:43.086Z,101318.44
2023-03-19T06:49:09.812Z,101320.78
2023-03-19T06:51:38.005Z,101313.75
2023-03-19T06:54:04.769Z,101313.84
2023-03-19T06:56:31.626Z,101319.31
2023-03-19T06:58:58.485Z,101328.66
2023-03-19T07:01:25.447Z,101337.38
2023-03-19T07:03:52.263Z,101333.25
2023-03-19T07:06:19.231Z,101336.06
2023-03-19T07:08:47.476Z,101341.09
2023-03-19T07:11:15.178Z,101353.41
2023-03-19T07:13:42.029Z,101358.38
2023-03-19T07:16:09.095Z,101360.28
2023-03-19T07:18:36.346Z,101360.28
2023-03-19T07:21:03.748Z,101361.81
2023-03-19T07:23:31.114Z,101357.06
2023-03-19T07:26:01.414Z,101366.50
2023-03-19T07:28:28.250Z,101357.59
2023-03-19T07:30:55.044Z,101366.50
2023-03-19T07:33:22.266Z,101369.44
2023-03-19T07:35:49.334Z,101367.59
2023-03-19T07:38:16.636Z,101371.72
2023-03-19T07:40:54.997Z,101378.09
2023-03-19T07:43:30.249Z,101382.84
2023-03-19T07:45:57.283Z,101387.28
2023-03-19T07:48:24.143Z,101378.19
2023-03-19T07:53:33.673Z,101391.81
2023-03-19T07:56:09.563Z,101395.34
2023-03-19T07:59:15.351Z,101399.13
2023-03-19T08:02:13.805Z,101392.59
2023-03-19T08:04:42.293Z,101395.50
2023-03-19T08:07:10.203Z,101404.47
2023-03-19T08:09:40.853Z,101394.50
2023-03-19T08:12:10.144Z,101395.44
2023-03-19T08:14:41.228Z,101394.19
2023-03-19T08:41:36.573Z,101416.22
2023-03-19T08:44:04.314Z,101412.19
2023-03-19T08:46:37.844Z,101421.25
2023-03-19T08:49:09.959Z,101421.25
2023-03-19T08:54:23.689Z,101425.63
2023-03-19T08:57:00.388Z,101419.91
2023-03-19T08:59:28.682Z,101430.25
2023-03-19T09:18:46.205Z,101449.00
2023-03-19T09:37:15.953Z,101470.53
2023-03-19T09:48:23.337Z,101482.41
2023-03-19T09:50:55.985Z,101474.97
2023-03-19T09:53:34.848Z,101476.03
2023-03-19T09:56:32.123Z,101486.44
2023-03-19T09:59:01.615Z,101477.16
2023-03-19T10:01:33.904Z,101477.47
2023-03-19T10:07:08.905Z,101476.13
2023-03-19T10:09:52.384Z,101485.28
2023-03-19T10:12:30.447Z,101481.88
2023-03-19T10:15:18.636Z,101485.09
2023-03-19T10:17:57.684Z,101497.06
2023-03-19T10:20:30.781Z,101496.47
2023-03-19T10:23:05.313Z,101498.78
2023-03-19T10:25:33.397Z,101491.50
2023-03-19T10:28:16.986Z,101509.00
2023-03-19T10:30:58.082Z,101503.78
2023-03-19T10:33:26.290Z,101498.22
2023-03-19T10:35:58.226Z,101505.69
2023-03-19T10:38:26.929Z,101508.63
2023-03-19T10:41:19.769Z,101506.56
2023-03-19T10:43:53.166Z,101510.38
2023-03-19T10:46:21.666Z,101506.03
2023-03-19T10:48:48.433Z,101507.25
2023-03-19T10:51:16.787Z,101506.59
2023-03-19T10:53:44.016Z,101510.28
2023-03-19T10:56:20.159Z,101509.91
2023-03-19T10:58:58.439Z,101511.81
2023-03-19T11:01:32.500Z,101510.38
2023-03-19T11:04:01.214Z,101508.84
2023-03-19T11:06:33.152Z,101506.28
2023-03-19T11:09:01.578Z,101517.81
2023-03-19T11:11:34.744Z,101515.88
2023-03-19T11:14:10.286Z,101516.28
2023-03-19T11:16:50.584Z,101519.16
2023-03-19T11:19:21.359Z,101522.97
2023-03-19T11:22:09.277Z,101526.16
2023-03-19T11:24:37.876Z,101529.59
2023-03-19T11:27:05.145Z,101523.13
2023-03-19T11:29:32.221Z,101528.94
2023-03-19T11:32:21.016Z,101534.06
2023-03-19T11:34:59.494Z,101532.06
2023-03-19T11:37:33.448Z,101528.38
2023-03-19T11:40:09.795Z,101526.00
2023-03-19T11:42:49.294Z,101525.22
2023-03-19T11:45:28.834Z,101523.63
2023-03-19T11:48:13.750Z,101516.88
2023-03-19T11:50:49.832Z,101523.56
2023-03-19T11:53:24.833Z,101528.41
2023-03-19T11:56:02.257Z,101527.97
2023-03-19T11:58:54.956Z,101528.16
2023-03-19T12:01:39.334Z,101531.94
2023-03-19T12:04:36.348Z,101541.63
2023-03-19T12:07:14.340Z,101531.38
2023-03-19T12:09:49.848Z,101537.41
2023-03-19T12:12:26.828Z,101534.19
2023-03-19T12:15:05.328Z,101536.34
2023-03-19T12:17:46.240Z,101545.34
2023-03-19T12:20:23.897Z,101545.88
2023-03-19T12:23:00.558Z,101550.31
2023-03-19T12:25:48.977Z,101553.59
2023-03-19T12:28:23.256Z,101556.31
2023-03-19T12:31:07.981Z,101554.31
2023-03-19T12:33:46.309Z,101553.66
2023-03-19T12:36:20.394Z,101552.81
2023-03-19T12:38:50.781Z,101553.94
2023-03-19T12:41:23.059Z,101551.06
2023-03-19T12:43:56.768Z,101561.47
2023-03-19T12:46:28.823Z,101562.13
2023-03-19T12:49:00.289Z,101578.41
2023-03-19T12:51:34.480Z,101570.88
2023-03-19T12:54:06.325Z,101584.41
2023-03-19T12:56:39.984Z,101583.72
2023-03-19T12:59:13.856Z,101583.16
2023-03-19T13:01:45.728Z,101580.09
2023-03-19T13:04:16.418Z,101588.78
2023-03-19T13:06:52.298Z,101588.09
2023-03-19T13:09:28.329Z,101594.75
2023-03-19T13:12:00.186Z,101588.97
2023-03-19T13:14:34.965Z,101592.09
2023-03-19T13:17:12.660Z,101603.44
2023-03-19T13:19:46.038Z,101602.09
2023-03-19T13:22:19.211Z,101606.09
2023-03-19T13:24:47.084Z,101610.63
2023-03-19T13:27:19.284Z,101611.75
2023-03-19T13:30:00.522Z,101613.84
2023-03-19T13:32:35.703Z,101613.56
2023-03-19T13:35:28.085Z,101618.88
2023-03-19T13:38:13.158Z,101614.34
2023-03-19T13:40:44.569Z,101615.28
2023-03-19T13:43:41.042Z,101614.00
2023-03-19T13:46:36.482Z,101624.63
2023-03-19T13:49:24.398Z,101619.31
2023-03-19T13:51:51.349Z,101627.47
2023-03-19T13:54:20.723Z,101631.44
2023-03-19T13:57:05.698Z,101634.97
2023-03-19T13:59:33.488Z,101637.19
2023-03-19T14:02:01.082Z,101642.81
2023-03-19T14:04:32.324Z,101647.34
2023-03-19T14:07:12.742Z,101655.06
2023-03-19T14:09:43.182Z,101649.81
2023-03-19T14:12:23.406Z,101652.66
2023-03-19T14:14:54.900Z,101650.97
2023-03-19T14:17:25.260Z,101651.81
2023-03-19T14:19:54.228Z,101659.94
2023-03-19T14:22:38.817Z,101663.47
2023-03-19T14:25:18.004Z,101670.78
2023-03-19T14:27:47.440Z,101667.94
2023-03-19T14:30:26.604Z,101683.53
2023-03-19T14:32:55.905Z,101679.38
2023-03-19T14:35:26.305Z,101673.06
2023-03-19T14:37:54.231Z,101665.50
2023-03-19T14:40:24.586Z,101651.94
2023-03-19T14:43:07.827Z,101647.84
2023-03-19T14:45:48.289Z,101640.13
2023-03-19T14:48:35.446Z,101640.28
2023-03-19T14:51:23.498Z,101641.16
2023-03-19T14:53:54.193Z,101650.91
2023-03-19T14:56:26.616Z,101654.69
2023-03-19T14:58:55.231Z,101650.25
2023-03-19T15:01:23.445Z,101660.56
2023-03-19T15:03:56.221Z,101661.91
2023-03-19T15:06:24.100Z,101669.91
2023-03-19T15:08:51.602Z,101667.50
2023-03-19T15:11:47.277Z,101666.31
2023-03-19T15:14:25.565Z,101674.72
2023-03-19T15:17:00.902Z,101677.38
2023-03-19T15:19:32.657Z,101669.91
2023-03-19T15:22:12.216Z,101672.56
2023-03-19T15:24:39.156Z,101670.31
2023-03-19T15:27:19.045Z,101672.22
2023-03-19T15:29:49.016Z,101662.09
2023-03-19T15:32:52.107Z,101663.47
2023-03-19T15:35:26.165Z,101657.28
2023-03-19T15:37:57.942Z,101651.81
2023-03-19T15:40:28.196Z,101646.75
2023-03-19T15:43:00.179Z,101646.31
2023-03-19T15:45:28.604Z,101646.41
2023-03-19T15:48:00.097Z,101659.59
2023-03-19T15:50:30.669Z,101656.25
2023-03-19T15:53:02.772Z,101668.44
2023-03-19T15:55:30.125Z,101674.66
2023-03-19T15:58:05.755Z,101665.56
2023-03-19T16:00:34.790Z,101668.88
2023-03-19T16:03:04.426Z,101671.59
2023-03-19T16:05:32.075Z,101685.91
2023-03-19T16:08:00.196Z,101677.78
2023-03-19T16:10:37.143Z,101691.41
2023-03-19T16:13:30.126Z,101687.13
2023-03-19T16:16:02.148Z,101698.63
2023-03-19T16:18:30.859Z,101699.47
2023-03-19T16:21:06.264Z,101711.13
2023-03-19T16:23:36.970Z,101710.22
2023-03-19T16:26:16.316Z,101713.88
2023-03-19T16:28:48.774Z,101726.06
2023-03-19T16:31:21.498Z,101736.91
2023-03-19T16:33:50.684Z,101731.16
2023-03-19T16:36:17.713Z,101740.69
2023-03-19T16:38:52.518Z,101755.84
2023-03-19T16:41:25.547Z,101757.78
2023-03-19T16:43:54.315Z,101759.78
2023-03-19T16:46:21.462Z,101771.75
2023-03-19T16:48:48.223Z,101775.41
2023-03-19T16:51:18.359Z,101774.84
2023-03-19T16:53:46.240Z,101782.66
2023-03-19T16:56:15.037Z,101781.00
2023-03-19T16:58:44.281Z,101782.41
2023-03-19T17:01:16.207Z,101790.47
2023-03-19T17:03:43.048Z,101790.63
2023-03-19T17:06:10.548Z,101788.94
2023-03-19T17:08:37.353Z,101784.59
2023-03-19T17:11:05.374Z,101787.34
2023-03-19T17:13:33.405Z,101792.94
2023-03-19T17:16:03.824Z,101801.78
2023-03-19T17:18:34.312Z,101803.75
2023-03-19T17:21:04.298Z,101812.78
2023-03-19T17:23:31.521Z,101808.50
2023-03-19T17:25:59.552Z,101820.84
2023-03-19T17:28:26.545Z,101815.66
2023-03-19T17:30:53.894Z,101810.91
2023-03-19T17:33:24.109Z,101819.66
2023-03-19T17:35:52.573Z,101818.19
2023-03-19T17:38:21.540Z,101819.94
2023-03-19T17:40:48.404Z,101819.00
2023-03-19T17:43:15.420Z,101827.22
2023-03-19T17:45:44.903Z,101832.50
2023-03-19T17:48:18.604Z,101829.22
2023-03-19T17:50:45.431Z,101840.69
2023-03-19T17:53:14.153Z,101843.25
2023-03-19T17:55:41.068Z,101849.50
2023-03-19T17:58:16.372Z,101864.47
2023-03-19T18:00:43.350Z,101874.22
2023-03-19T18:03:14.583Z,101873.09
2023-03-19T18:05:41.464Z,101873.38
2023-03-19T18:08:14.660Z,101870.78
2023-03-19T18:10:41.518Z,101876.84
2023-03-19T18:13:08.896Z,101866.34
2023-03-19T18:15:37.109Z,101871.50
2023-03-19T18:18:06.639Z,101885.69
2023-03-19T18:20:37.252Z,101890.34
2023-03-19T18:23:05.141Z,101890.38
2023-03-19T18:25:33.380Z,101884.22
2023-03-19T18:28:00.229Z,101883.53
2023-03-19T18:30:31.765Z,101892.25
2023-03-19T18:33:01.754Z,101887.00
2023-03-19T18:35:31.031Z,101889.53
2023-03-19T18:37:58.175Z,101893.25
2023-03-19T18:40:27.213Z,101897.84
2023-03-19T18:42:55.744Z,101894.31
2023-03-19T18:45:23.053Z,101898.63
2023-03-19T18:47:54.082Z,101889.94
2023-03-19T18:50:26.986Z,101888.88
2023-03-19T18:52:54.163Z,101903.72
2023-03-19T18:55:25.943Z,101895.81
2023-03-19T18:57:57.129Z,101900.41
2023-03-19T19:00:26.202Z,101886.28
2023-03-19T19:02:54.029Z,101894.22
2023-03-19T19:05:23.192Z,101896.88
2023-03-19T19:07:50.838Z,101897.09
2023-03-19T19:10:18.214Z,101901.63
2023-03-19T19:12:47.582Z,101901.47
2023-03-19T19:15:34.806Z,101909.44
2023-03-19T19:18:13.260Z,101912.09
2023-03-19T19:20:40.493Z,101914.59
2023-03-19T19:23:07.360Z,101914.59
2023-03-19T19:25:34.234Z,101914.00
2023-03-19T19:28:04.026Z,101914.97
2023-03-19T19:30:32.980Z,101913.28
2023-03-19T19:33:00.205Z,101915.97
2023-03-19T19:35:28.372Z,101921.28
2023-03-19T19:37:55.224Z,101922.41
2023-03-19T19:40:27.996Z,101926.91
2023-03-19T19:42:54.925Z,101926.78
2023-03-19T19:45:29.607Z,101927.63
2023-03-19T19:47:58.611Z,101921.63
2023-03-19T19:50:26.405Z,101924.19
2023-03-19T19:52:55.248Z,101930.53
2023-03-19T19:55:24.979Z,101940.41
2023-03-19T19:57:55.688Z,101936.81
2023-03-19T20:00:24.726Z,101945.69
2023-03-19T20:02:52.145Z,101947.25
2023-03-19T20:05:24.846Z,101954.38
2023-03-19T20:07:53.558Z,101947.25
2023-03-19T20:10:21.954Z,101950.94
2023-03-19T20:12:54.684Z,101945.69
2023-03-19T20:15:23.977Z,101950.06
2023-03-19T20:17:51.444Z,101949.41
2023-03-19T20:20:21.941Z,101950.16
2023-03-19T20:22:49.115Z,101952.00
2023-03-19T20:25:17.236Z,101957.28
2023-03-19T20:27:45.753Z,101955.59
2023-03-19T20:30:26.084Z,101952.00
2023-03-19T20:32:53.755Z,101957.41
2023-03-19T20:35:23.841Z,101965.44
2023-03-19T20:37:51.564Z,101966.19
2023-03-19T20:40:19.621Z,101974.19
2023-03-19T20:42:48.912Z,101967.28
2023-03-19T20:45:19.602Z,101971.66
2023-03-19T20:47:47.107Z,101971.09
2023-03-19T20:50:19.555Z,101971.03
2023-03-19T20:52:48.353Z,101957.06
2023-03-19T20:55:16.958Z,101973.75
2023-03-19T20:57:45.712Z,101969.13
2023-03-19T21:00:18.786Z,101974.47
2023-03-19T21:02:45.934Z,101981.56
2023-03-19T21:05:13.343Z,101973.53
2023-03-19T21:07:40.479Z,101973.63
2023-03-19T21:10:29.865Z,101957.44
2023-03-19T21:12:57.258Z,101978.25
2023-03-19T21:15:24.389Z,101968.53
2023-03-19T21:17:51.252Z,101976.50
2023-03-19T21:20:20.492Z,101978.19
2023-03-19T21:22:50.892Z,101980.72
2023-03-19T21:25:23.498Z,101970.19
2023-03-19T21:27:54.095Z,101972.81
2023-03-19T21:30:21.926Z,101968.53
2023-03-19T21:32:50.070Z,101962.22
2023-03-19T21:35:18.750Z,101967.66
2023-03-19T21:37:46.488Z,101979.16
2023-03-19T21:40:15.270Z,101978.38
2023-03-19T21:42:46.088Z,101979.38
2023-03-19T21:45:24.028Z,101982.81
2023-03-19T21:47:50.841Z,101974.81
2023-03-19T21:50:19.275Z,101980.25
2023-03-19T21:52:57.883Z,101969.53
2023-03-19T21:55:27.817Z,101965.25
2023-03-19T21:57:57.449Z,101972.34
2023-03-19T22:00:25.034Z,101975.97
2023-03-19T22:02:51.882Z,101986.38
2023-03-19T22:05:25.074Z,101989.97
2023-03-19T22:07:52.696Z,101988.06
2023-03-19T22:10:21.959Z,101996.13
2023-03-19T22:12:49.655Z,101996.91
2023-03-19T22:15:21.501Z,101994.31
2023-03-19T22:17:48.852Z,102004.16
2023-03-19T22:20:21.766Z,102006.72
2023-03-19T22:22:49.312Z,102007.44
2023-03-19T22:25:17.458Z,102000.56
2023-03-19T22:27:47.265Z,102007.56
2023-03-19T22:30:34.020Z,102001.31
2023-03-19T22:33:01.312Z,102003.88
2023-03-19T22:35:28.158Z,101996.00
2023-03-19T22:37:55.245Z,101990.69
2023-03-19T22:40:21.955Z,101989.88
2023-03-19T22:42:49.198Z,101986.44
2023-03-19T22:45:23.526Z,102000.34
2023-03-19T22:47:52.508Z,101993.16
2023-03-19T22:50:23.538Z,101997.69
2023-03-19T22:52:50.800Z,101981.81
2023-03-19T22:55:17.780Z,101986.19
2023-03-19T22:57:45.154Z,101983.53
2023-03-19T23:00:16.183Z,101976.47
2023-03-19T23:02:43.947Z,101969.38
2023-03-19T23:05:27.016Z,101971.22
2023-03-19T23:07:54.500Z,101966.06
2023-03-19T23:10:23.061Z,101969.66
2023-03-19T23:12:49.941Z,101959.06
2023-03-19T23:15:16.721Z,101965.19
2023-03-19T23:17:44.230Z,101958.19
2023-03-19T23:20:12.810Z,101948.47
2023-03-19T23:22:40.974Z,101944.88
2023-03-19T23:25:13.358Z,101951.16
2023-03-19T23:27:41.192Z,101964.66
2023-03-19T23:30:18.518Z,101960.22
2023-03-19T23:32:45.346Z,101959.41
2023-03-19T23:35:16.197Z,101954.94
2023-03-19T23:37:46.069Z,101955.97
2023-03-19T23:40:13.928Z,101967.03
2023-03-19T23:42:45.482Z,101964.66
2023-03-19T23:45:25.174Z,101966.31
2023-03-19T23:47:51.910Z,101972.84
2023-03-19T23:50:18.622Z,101970.97
2023-03-19T23:52:46.740Z,101975.28
2023-03-19T23:55:13.520Z,101968.28
2023-03-19T23:57:40.677Z,101965.81
